Time,TemperatureF,DewpointF,PressureIn,WindDirection,WindDirectionDegrees,WindSpeedMPH,WindSpeedGustMPH,Humidity,HourlyPrecipIn,Conditions,Clouds,dailyrainin,SolarRadiationWatts/m^2,SoftwareType,DateUTC
2013-06-13 00:01:00,67.4,63.7,30.00,East,92,9.0,13.0,88,0.01,RA,SCT,0.00,0.0,WeatherDisplay:10.37,2013-06-13 10:01:00,
2013-06-13 00:11:00,67.3,63.6,30.00,East,84,9.0,15.0,88,0.00,CLR,SCT,0.00,0.0,WeatherDisplay:10.37,2013-06-13 10:11:00,
2013-06-13 00:21:00,67.2,63.5,30.00,ENE,78,8.0,15.0,88,0.00,CLR,SCT,0.00,0.0,WeatherDisplay:10.37,2013-06-13 10:21:00,
2013-06-13 00:31:00,67.3,63.6,30.00,ENE,77,7.0,14.0,88,0.00,CLR,SCT,0.00,0.0,WeatherDisplay:10.37,2013-06-13 10:31:00,
2013-06-13 00:41:00,67.0,63.6,29.99,East,88,7.0,13.0,89,0.01,RA,SCT,0.01,0.0,WeatherDisplay:10.37,2013-06-13 10:41:00,
2013-06-13 00:51:00,66.9,63.9,29.99,East,80,8.0,21.0,90,0.01,RA,SCT,0.02,0.0,WeatherDisplay:10.37,2013-06-13 10:51:00,
2013-06-13 01:01:00,66.9,63.9,29.98,ENE,77,8.0,15.0,90,0.00,CLR,SCT,0.02,0.0,WeatherDisplay:10.37,2013-06-13 11:01:00,
2013-06-13 01:11:00,66.9,63.9,29.98,ENE,76,7.0,16.0,90,0.00,CLR,SCT,0.02,0.0,WeatherDisplay:10.37,2013-06-13 11:11:00,
2013-06-13 01:21:00,67.0,64.3,29.98,East,82,12.0,18.0,91,0.02,-RA,SCT,0.04,0.0,WeatherDisplay:10.37,2013-06-13 11:21:00,
2013-06-13 01:31:00,66.7,63.4,29.97,East,91,10.0,17.0,89,0.00,-RA,SCT,0.04,0.0,WeatherDisplay:10.37,2013-06-13 11:31:00,
2013-06-13 01:41:00,66.6,62.6,29.97,East,88,12.0,20.0,87,0.00,-RA,SCT,0.04,0.0,WeatherDisplay:10.37,2013-06-13 11:41:00,
2013-06-13 01:51:00,66.7,62.4,29.97,East,86,13.0,17.0,86,0.00,-RA,SCT,0.04,0.0,WeatherDisplay:10.37,2013-06-13 11:51:00,
2013-06-13 02:01:00,67.1,63.1,29.97,East,86,8.0,16.0,87,0.00,-RA,SCT,0.04,0.0,WeatherDisplay:10.37,2013-06-13 12:01:00,
2013-06-13 02:11:00,67.1,62.8,29.97,East,88,8.0,16.0,86,0.00,-RA,SCT,0.04,0.0,WeatherDisplay:10.37,2013-06-13 12:11:00,
2013-06-13 02:21:00,67.2,61.9,29.96,East,99,7.0,18.0,83,0.00,-RA,SCT,0.04,0.0,WeatherDisplay:10.37,2013-06-13 12:21:00,
2013-06-13 02:31:00,67.2,61.5,29.97,East,93,8.0,15.0,82,0.00,-RA,SCT,0.04,0.0,WeatherDisplay:10.37,2013-06-13 12:31:00,
2013-06-13 02:41:00,67.0,61.0,29.97,East,90,3.0,12.0,81,0.00,FEW,SCT,0.04,0.0,WeatherDisplay:10.37,2013-06-13 12:41:00,
2013-06-13 02:51:00,66.8,60.1,29.97,East,98,5.0,11.0,79,0.00,FEW,SCT,0.04,0.0,WeatherDisplay:10.37,2013-06-13 12:51:00,
2013-06-13 03:01:00,66.8,60.1,29.97,East,79,6.0,12.0,79,0.00,FEW,SCT,0.04,0.0,WeatherDisplay:10.37,2013-06-13 13:01:00,
2013-06-13 03:11:00,67.0,60.6,29.97,East,86,7.0,15.0,80,0.00,CLR,SCT,0.04,0.0,WeatherDisplay:10.37,2013-06-13 13:11:00,
2013-06-13 03:21:00,67.0,61.3,29.97,East,81,8.0,16.0,82,0.00,CLR,SCT,0.04,0.0,WeatherDisplay:10.37,2013-06-13 13:21:00,
2013-06-13 03:31:00,66.9,61.6,29.97,ENE,78,5.0,13.0,83,0.00,CLR,SCT,0.04,0.0,WeatherDisplay:10.37,2013-06-13 13:31:00,
2013-06-13 03:41:00,66.6,61.6,29.97,East,80,9.0,14.0,84,0.00,CLR,SCT,0.04,0.0,WeatherDisplay:10.37,2013-06-13 13:41:00,
2013-06-13 03:51:00,66.7,61.7,29.97,East,88,7.0,20.0,84,0.00,CLR,SCT,0.04,0.0,WeatherDisplay:10.37,2013-06-13 13:51:00,
2013-06-13 04:01:00,67.0,61.3,29.97,East,90,8.0,15.0,82,0.00,CLR,SCT,0.04,0.0,WeatherDisplay:10.37,2013-06-13 14:01:00,
2013-06-13 04:11:00,67.1,61.4,29.96,East,92,6.0,24.0,82,0.00,CLR,SCT,0.04,0.0,WeatherDisplay:10.37,2013-06-13 14:11:00,
2013-06-13 04:21:00,67.0,61.0,29.96,East,87,8.0,16.0,81,0.00,CLR,SCT,0.04,0.0,WeatherDisplay:10.37,2013-06-13 14:21:00,
2013-06-13 04:31:00,67.1,61.4,29.97,ENE,77,6.0,15.0,82,0.00,CLR,SCT,0.04,0.0,WeatherDisplay:10.37,2013-06-13 14:31:00,
2013-06-13 04:41:00,67.1,60.7,29.97,East,89,9.0,15.0,80,0.00,CLR,SCT,0.04,0.0,WeatherDisplay:10.37,2013-06-13 14:41:00,
2013-06-13 04:51:00,67.4,60.3,29.97,East,84,7.0,12.0,78,0.00,CLR,SCT,0.04,0.0,WeatherDisplay:10.37,2013-06-13 14:51:00,
2013-06-13 05:01:00,67.5,61.5,29.98,ENE,67,6.0,12.0,81,0.00,CLR,SCT,0.04,0.0,WeatherDisplay:10.37,2013-06-13 15:01:00,
2013-06-13 05:11:00,67.0,61.7,29.98,East,85,9.0,16.0,83,0.00,CLR,SCT,0.04,0.0,WeatherDisplay:10.37,2013-06-13 15:11:00,
2013-06-13 05:21:00,67.3,61.6,29.98,East,88,9.0,17.0,82,0.00,CLR,SCT,0.04,0.0,WeatherDisplay:10.37,2013-06-13 15:21:00,
2013-06-13 05:31:00,67.2,61.5,29.98,East,81,12.0,18.0,82,0.00,CLR,SCT,0.04,0.0,WeatherDisplay:10.37,2013-06-13 15:31:00,
2013-06-13 05:41:00,67.2,61.5,29.98,East,91,9.0,16.0,82,0.00,CLR,SCT,0.04,0.0,WeatherDisplay:10.37,2013-06-13 15:41:00,
2013-06-13 05:51:00,67.4,61.0,29.98,East,88,7.0,14.0,80,0.00,CLR,SCT,0.04,0.1,WeatherDisplay:10.37,2013-06-13 15:51:00,
2013-06-13 06:01:00,67.4,60.3,29.99,East,94,8.0,15.0,78,0.00,CLR,SCT,0.04,0.5,WeatherDisplay:10.37,2013-06-13 16:01:00,
2013-06-13 06:11:00,67.6,59.8,29.99,East,95,7.0,17.0,76,0.00,CLR,SCT,0.04,0.9,WeatherDisplay:10.37,2013-06-13 16:11:00,
2013-06-13 06:21:00,67.8,60.3,29.99,East,92,10.0,16.0,77,0.00,CLR,SCT,0.04,2.1,WeatherDisplay:10.37,2013-06-13 16:21:00,
2013-06-13 06:31:00,68.0,60.5,29.99,East,87,10.0,17.0,77,0.00,CLR,SCT,0.04,23.5,WeatherDisplay:10.37,2013-06-13 16:31:00,
2013-06-13 06:41:00,68.2,61.1,29.99,East,84,9.0,20.0,78,0.00,CLR,SCT,0.04,23.5,WeatherDisplay:10.37,2013-06-13 16:41:00,
2013-06-13 06:51:00,68.3,61.5,29.99,ENE,78,7.0,17.0,79,0.00,CLR,SCT,0.04,42.4,WeatherDisplay:10.37,2013-06-13 16:51:00,
2013-06-13 07:01:00,68.6,61.5,30.00,East,96,8.0,18.0,78,0.00,CLR,SCT,0.04,10.6,WeatherDisplay:10.37,2013-06-13 17:01:00,
2013-06-13 07:11:00,69.2,61.7,30.00,East,94,8.0,20.0,77,0.00,CLR,SCT,0.04,9.3,WeatherDisplay:10.37,2013-06-13 17:11:00,
2013-06-13 07:21:00,69.8,61.5,30.00,East,88,10.0,20.0,75,0.00,CLR,SCT,0.04,11.5,WeatherDisplay:10.37,2013-06-13 17:21:00,
2013-06-13 07:31:00,70.2,62.7,30.00,East,88,8.0,17.0,77,0.00,CLR,SCT,0.04,105.5,WeatherDisplay:10.37,2013-06-13 17:31:00,
2013-06-13 07:41:00,70.6,62.3,30.00,East,97,8.0,18.0,75,0.00,CLR,SCT,0.04,123.4,WeatherDisplay:10.37,2013-06-13 17:41:00,
2013-06-13 07:51:00,71.3,63.0,30.00,East,98,10.0,17.0,75,0.00,CLR,SCT,0.04,142.1,WeatherDisplay:10.37,2013-06-13 17:51:00,
2013-06-13 08:01:00,72.2,63.5,30.00,East,89,9.0,15.0,74,0.00,CLR,SCT,0.04,161.1,WeatherDisplay:10.37,2013-06-13 18:01:00,
2013-06-13 08:11:00,72.8,64.1,30.00,ENE,76,8.0,20.0,74,0.00,CLR,SCT,0.04,178.6,WeatherDisplay:10.37,2013-06-13 18:11:00,
2013-06-13 08:21:00,73.5,64.3,30.00,East,99,9.0,14.0,73,0.00,FEW,SCT,0.04,102.7,WeatherDisplay:10.37,2013-06-13 18:21:00,
2013-06-13 08:31:00,74.0,64.8,30.00,East,84,8.0,13.0,73,0.00,FEW,SCT,0.04,221.9,WeatherDisplay:10.37,2013-06-13 18:31:00,
2013-06-13 08:41:00,74.6,65.4,30.00,East,83,12.0,15.0,73,0.00,FEW,SCT,0.04,245.5,WeatherDisplay:10.37,2013-06-13 18:41:00,
2013-06-13 08:51:00,74.9,65.3,30.00,East,81,14.0,22.0,72,0.00,FEW,SCT,0.04,276.5,WeatherDisplay:10.37,2013-06-13 18:51:00,
2013-06-13 09:01:00,75.2,65.1,30.00,East,82,12.0,22.0,71,0.00,FEW,SCT,0.04,313.4,WeatherDisplay:10.37,2013-06-13 19:01:00,
2013-06-13 09:11:00,74.9,66.1,30.00,East,83,8.0,22.0,74,0.00,FEW,SCT,0.04,334.0,WeatherDisplay:10.37,2013-06-13 19:11:00,
2013-06-13 09:21:00,74.8,65.6,30.00,East,80,14.0,21.0,73,0.00,FEW,SCT,0.04,121.4,WeatherDisplay:10.37,2013-06-13 19:21:00,
2013-06-13 09:31:00,75.2,65.9,30.00,East,81,10.0,28.0,73,0.00,FEW,SCT,0.04,357.8,WeatherDisplay:10.37,2013-06-13 19:31:00,
2013-06-13 09:41:00,76.0,66.3,30.00,East,79,10.0,24.0,72,0.00,FEW,SCT,0.04,391.4,WeatherDisplay:10.37,2013-06-13 19:41:00,
2013-06-13 09:51:00,76.7,66.1,30.00,ENE,76,9.0,17.0,70,0.00,FEW,SCT,0.04,389.4,WeatherDisplay:10.37,2013-06-13 19:51:00,
2013-06-13 10:01:00,77.1,65.7,30.00,ENE,72,15.0,21.0,68,0.00,FEW,SCT,0.04,418.9,WeatherDisplay:10.37,2013-06-13 20:01:00,
2013-06-13 10:11:00,77.4,66.4,30.00,ENE,64,10.0,21.0,69,0.00,FEW,SCT,0.04,431.6,WeatherDisplay:10.37,2013-06-13 20:11:00,
2013-06-13 10:21:00,78.0,65.7,30.00,East,86,9.0,16.0,66,0.00,FEW,SCT,0.04,452.5,WeatherDisplay:10.37,2013-06-13 20:21:00,
2013-06-13 10:31:00,78.6,67.5,30.01,East,101,7.0,17.0,69,0.00,FEW,SCT,0.04,144.4,WeatherDisplay:10.37,2013-06-13 20:31:00,
2013-06-13 10:41:00,78.0,68.2,30.01,East,90,8.0,17.0,72,0.00,SCT,SCT,0.04,618.6,WeatherDisplay:10.37,2013-06-13 20:41:00,
2013-06-13 10:51:00,76.0,68.3,30.00,East,90,9.0,20.0,77,0.00,SCT,SCT,0.04,278.0,WeatherDisplay:10.37,2013-06-13 20:51:00,
2013-06-13 11:01:00,74.3,68.1,30.01,East,85,12.0,20.0,81,0.00,SCT,SCT,0.04,260.8,WeatherDisplay:10.37,2013-06-13 21:01:00,
2013-06-13 11:11:00,74.0,67.8,30.01,East,85,10.0,24.0,81,0.00,SCT,SCT,0.04,627.6,WeatherDisplay:10.37,2013-06-13 21:11:00,
2013-06-13 11:21:00,75.9,68.6,30.01,ENE,73,8.0,18.0,78,0.00,FEW,SCT,0.04,750.6,WeatherDisplay:10.37,2013-06-13 21:21:00,
2013-06-13 11:31:00,76.3,67.4,30.01,East,81,12.0,16.0,74,0.00,FEW,SCT,0.04,601.1,WeatherDisplay:10.37,2013-06-13 21:31:00,
2013-06-13 11:41:00,76.7,67.4,30.01,ENE,68,16.0,23.0,73,0.00,FEW,SCT,0.04,470.9,WeatherDisplay:10.37,2013-06-13 21:41:00,
2013-06-13 11:51:00,76.1,68.0,30.01,ENE,70,15.0,20.0,76,0.00,FEW,SCT,0.04,421.3,WeatherDisplay:10.37,2013-06-13 21:51:00,
2013-06-13 12:01:00,76.2,68.1,30.01,East,81,12.0,20.0,76,0.00,FEW,SCT,0.04,856.3,WeatherDisplay:10.37,2013-06-13 22:01:00,
2013-06-13 12:11:00,76.2,67.7,30.01,East,86,9.0,20.0,75,0.00,FEW,SCT,0.04,551.6,WeatherDisplay:10.37,2013-06-13 22:11:00,
2013-06-13 12:21:00,77.2,68.2,30.00,East,86,13.0,22.0,74,0.00,SCT,SCT,0.04,626.5,WeatherDisplay:10.37,2013-06-13 22:21:00,
2013-06-13 12:31:00,77.7,66.7,29.99,East,79,14.0,28.0,69,0.00,SCT,SCT,0.04,566.5,WeatherDisplay:10.37,2013-06-13 22:31:00,
2013-06-13 12:41:00,78.3,66.9,29.99,ENE,78,12.0,28.0,68,0.00,SCT,SCT,0.04,596.6,WeatherDisplay:10.37,2013-06-13 22:41:00,
2013-06-13 12:51:00,78.8,67.4,29.99,ENE,78,13.0,23.0,68,0.00,SCT,SCT,0.04,573.3,WeatherDisplay:10.37,2013-06-13 22:51:00,
2013-06-13 13:01:00,79.2,66.9,29.99,East,85,10.0,25.0,66,0.00,SCT,SCT,0.04,562.8,WeatherDisplay:10.37,2013-06-13 23:01:00,
2013-06-13 13:11:00,80.0,66.3,29.99,East,90,12.0,25.0,63,0.00,SCT,SCT,0.04,561.1,WeatherDisplay:10.37,2013-06-13 23:11:00,
2013-06-13 13:21:00,80.3,67.1,29.99,East,79,10.0,19.0,64,0.00,SCT,SCT,0.04,548.2,WeatherDisplay:10.37,2013-06-13 23:21:00,
2013-06-13 13:31:00,80.8,66.6,29.99,East,83,12.0,23.0,62,0.00,SCT,SCT,0.04,547.3,WeatherDisplay:10.37,2013-06-13 23:31:00,
2013-06-13 13:41:00,81.5,67.3,29.99,East,82,15.0,26.0,62,0.00,SCT,SCT,0.04,522.4,WeatherDisplay:10.37,2013-06-13 23:41:00,
2013-06-13 13:51:00,81.4,66.7,29.98,ENE,76,10.0,22.0,61,0.00,SCT,SCT,0.04,509.1,WeatherDisplay:10.37,2013-06-13 23:51:00,
2013-06-13 14:01:00,81.4,66.7,29.98,ENE,77,10.0,10.0,61,0.00,SCT,SCT,0.04,492.7,WeatherDisplay:10.37,2013-06-14 00:01:00,
2013-06-13 14:11:00,81.4,66.7,29.98,ENE,77,10.0,10.0,61,0.00,-RA,SCT,0.04,476.2,WeatherDisplay:10.37,2013-06-14 00:11:00,
2013-06-13 14:21:00,81.4,66.7,29.98,ENE,77,10.0,10.0,61,0.00,-RA,SCT,0.04,481.1,WeatherDisplay:10.37,2013-06-14 00:21:00,
2013-06-13 14:31:00,81.4,66.7,29.98,ENE,77,10.0,10.0,61,0.00,-RA,SCT,0.04,571.6,WeatherDisplay:10.37,2013-06-14 00:31:00,
2013-06-13 14:41:00,81.4,66.7,29.98,ENE,77,10.0,10.0,61,0.00,-RA,SCT,0.04,432.7,WeatherDisplay:10.37,2013-06-14 00:41:00,
2013-06-13 14:51:00,79.0,65.8,29.97,East,81,10.0,22.0,64,0.00,-RA,SCT,0.04,411.0,WeatherDisplay:10.37,2013-06-14 00:51:00,
2013-06-13 15:01:00,79.8,66.6,29.97,ENE,74,10.0,30.0,64,0.00,-RA,SCT,0.04,388.3,WeatherDisplay:10.37,2013-06-14 01:01:00,
2013-06-13 15:11:00,79.6,65.9,29.97,East,86,13.0,23.0,63,0.00,-RA,SCT,0.04,369.9,WeatherDisplay:10.37,2013-06-14 01:11:00,
2013-06-13 15:21:00,79.6,64.5,29.98,East,95,10.0,25.0,60,0.00,SCT,SCT,0.04,353.6,WeatherDisplay:10.37,2013-06-14 01:21:00,
2013-06-13 15:31:00,80.6,64.5,29.97,East,90,12.0,23.0,58,0.00,SCT,SCT,0.04,329.9,WeatherDisplay:10.37,2013-06-14 01:31:00,
2013-06-13 15:41:00,81.1,64.4,29.97,East,92,9.0,20.0,57,0.00,SCT,SCT,0.04,308.2,WeatherDisplay:10.37,2013-06-14 01:41:00,
2013-06-13 15:51:00,81.2,66.9,29.96,East,82,12.0,23.0,62,0.00,SCT,SCT,0.04,285.1,WeatherDisplay:10.37,2013-06-14 01:51:00,
2013-06-13 16:01:00,80.2,67.9,29.96,ENE,72,13.0,20.0,66,0.00,SCT,SCT,0.04,263.8,WeatherDisplay:10.37,2013-06-14 02:01:00,
2013-06-13 16:11:00,79.2,68.1,29.97,ENE,66,10.0,23.0,69,0.00,SCT,SCT,0.04,246.6,WeatherDisplay:10.37,2013-06-14 02:11:00,
2013-06-13 16:21:00,78.3,66.9,29.96,ENE,76,13.0,23.0,68,0.00,SCT,SCT,0.04,220.3,WeatherDisplay:10.37,2013-06-14 02:21:00,
2013-06-13 16:31:00,78.2,66.4,29.96,East,88,6.0,20.0,67,0.00,SCT,SCT,0.04,200.2,WeatherDisplay:10.37,2013-06-14 02:31:00,
2013-06-13 16:41:00,78.8,65.6,29.96,East,86,14.0,18.0,64,0.00,SCT,SCT,0.04,180.0,WeatherDisplay:10.37,2013-06-14 02:41:00,
2013-06-13 16:51:00,78.7,66.4,29.96,East,84,8.0,16.0,66,0.00,SCT,SCT,0.04,162.4,WeatherDisplay:10.37,2013-06-14 02:51:00,
2013-06-13 17:01:00,78.4,66.5,29.97,ENE,78,10.0,17.0,67,0.00,SCT,SCT,0.04,143.9,WeatherDisplay:10.37,2013-06-14 03:01:00,
2013-06-13 17:11:00,77.8,66.4,29.96,East,80,6.0,22.0,68,0.00,SCT,SCT,0.04,127.4,WeatherDisplay:10.37,2013-06-14 03:11:00,
2013-06-13 17:21:00,77.3,66.3,29.97,ENE,75,9.0,17.0,69,0.00,FEW,SCT,0.04,109.3,WeatherDisplay:10.37,2013-06-14 03:21:00,
2013-06-13 17:31:00,76.1,66.8,29.97,ENE,68,12.0,18.0,73,0.00,FEW,SCT,0.04,100.1,WeatherDisplay:10.37,2013-06-14 03:31:00,
2013-06-13 17:41:00,74.9,67.2,29.98,East,81,10.0,20.0,77,0.00,FEW,SCT,0.04,31.8,WeatherDisplay:10.37,2013-06-14 03:41:00,
2013-06-13 17:51:00,72.9,67.0,29.98,East,86,7.0,18.0,82,0.00,FEW,SCT,0.04,29.0,WeatherDisplay:10.37,2013-06-14 03:51:00,
2013-06-13 18:01:00,72.1,66.6,29.98,East,81,8.0,21.0,83,0.00,FEW,SCT,0.04,62.4,WeatherDisplay:10.37,2013-06-14 04:01:00,
2013-06-13 18:11:00,71.8,65.3,29.98,East,80,9.0,18.0,80,0.00,FEW,SCT,0.04,42.6,WeatherDisplay:10.37,2013-06-14 04:11:00,
2013-06-13 18:21:00,71.5,65.0,29.98,East,79,9.0,20.0,80,0.00,FEW,SCT,0.04,29.2,WeatherDisplay:10.37,2013-06-14 04:21:00,
2013-06-13 18:31:00,71.0,64.9,29.98,ENE,72,8.0,15.0,81,0.00,FEW,SCT,0.04,19.2,WeatherDisplay:10.37,2013-06-14 04:31:00,
2013-06-13 18:41:00,70.7,64.6,29.98,ENE,72,9.0,16.0,81,0.00,FEW,SCT,0.04,8.2,WeatherDisplay:10.37,2013-06-14 04:41:00,
2013-06-13 18:51:00,70.3,64.5,29.98,ENE,75,9.0,15.0,82,0.00,FEW,SCT,0.04,0.5,WeatherDisplay:10.37,2013-06-14 04:51:00,
2013-06-13 19:01:00,69.6,64.5,29.98,ENE,72,7.0,15.0,84,0.00,FEW,SCT,0.04,0.1,WeatherDisplay:10.37,2013-06-14 05:01:00,
2013-06-13 19:11:00,69.2,64.5,29.99,ENE,70,9.0,14.0,85,0.00,SCT,SCT,0.04,0.0,WeatherDisplay:10.37,2013-06-14 05:11:00,
2013-06-13 19:21:00,68.8,64.8,29.99,ENE,70,7.0,14.0,87,0.00,SCT,SCT,0.04,0.0,WeatherDisplay:10.37,2013-06-14 05:21:00,
2013-06-13 19:31:00,68.5,64.8,30.00,ENE,69,7.0,15.0,88,0.00,SCT,SCT,0.04,0.0,WeatherDisplay:10.37,2013-06-14 05:31:00,
2013-06-13 19:41:00,68.3,65.3,30.00,ENE,70,8.0,14.0,90,0.01,RA,SCT,0.05,0.0,WeatherDisplay:10.37,2013-06-14 05:41:00,
2013-06-13 19:51:00,68.1,64.1,30.00,ESE,107,6.0,17.0,87,0.00,SCT,SCT,0.05,0.0,WeatherDisplay:10.37,2013-06-14 05:51:00,
2013-06-13 20:01:00,68.2,63.5,30.00,ENE,69,5.0,12.0,85,0.00,SCT,SCT,0.05,0.0,WeatherDisplay:10.37,2013-06-14 06:01:00,
2013-06-13 20:11:00,67.9,63.6,29.99,East,81,10.0,16.0,86,0.00,BKN,SCT,0.05,0.0,WeatherDisplay:10.37,2013-06-14 06:11:00,
2013-06-13 20:21:00,68.0,64.0,30.00,ENE,74,7.0,14.0,87,0.00,BKN,SCT,0.05,0.0,WeatherDisplay:10.37,2013-06-14 06:21:00,
2013-06-13 20:31:00,67.8,64.1,30.00,ENE,66,5.0,16.0,88,0.00,BKN,SCT,0.05,0.0,WeatherDisplay:10.37,2013-06-14 06:31:00,
2013-06-13 20:41:00,67.7,63.7,30.00,ENE,74,8.0,14.0,87,0.00,BKN,SCT,0.05,0.0,WeatherDisplay:10.37,2013-06-14 06:41:00,
2013-06-13 20:51:00,68.0,64.0,30.00,East,82,7.0,14.0,87,0.00,BKN,SCT,0.05,0.0,WeatherDisplay:10.37,2013-06-14 06:51:00,
2013-06-13 21:01:00,68.2,64.1,30.00,ENE,71,8.0,14.0,87,0.00,BKN,SCT,0.05,0.0,WeatherDisplay:10.37,2013-06-14 07:01:00,
2013-06-13 21:11:00,68.1,64.1,30.01,ENE,76,6.0,12.0,87,0.00,BKN,SCT,0.05,0.0,WeatherDisplay:10.37,2013-06-14 07:11:00,
2013-06-13 21:21:00,68.2,63.9,30.00,ENE,75,7.0,12.0,86,0.00,FEW,SCT,0.05,0.0,WeatherDisplay:10.37,2013-06-14 07:21:00,
2013-06-13 21:31:00,68.2,64.2,30.01,ENE,74,6.0,12.0,87,0.00,FEW,SCT,0.05,0.0,WeatherDisplay:10.37,2013-06-14 07:31:00,
2013-06-13 21:41:00,68.0,64.6,30.01,East,80,5.0,18.0,89,0.00,FEW,SCT,0.05,0.0,WeatherDisplay:10.37,2013-06-14 07:41:00,
2013-06-13 21:51:00,67.9,63.8,30.01,East,94,5.0,13.0,87,0.00,FEW,SCT,0.05,0.0,WeatherDisplay:10.37,2013-06-14 07:51:00,
2013-06-13 22:01:00,68.0,63.6,30.01,East,85,9.0,17.0,86,0.00,FEW,SCT,0.05,0.0,WeatherDisplay:10.37,2013-06-14 08:01:00,
2013-06-13 22:11:00,68.2,63.5,30.01,East,83,9.0,18.0,85,0.00,SCT,SCT,0.05,0.0,WeatherDisplay:10.37,2013-06-14 08:11:00,
2013-06-13 22:21:00,68.6,63.6,30.02,East,92,8.0,18.0,84,0.00,SCT,SCT,0.05,0.0,WeatherDisplay:10.37,2013-06-14 08:21:00,
2013-06-13 22:31:00,68.9,63.9,30.02,East,91,7.0,22.0,84,0.00,SCT,SCT,0.05,0.0,WeatherDisplay:10.37,2013-06-14 08:31:00,
2013-06-13 22:41:00,68.8,63.8,30.02,East,89,9.0,20.0,84,0.00,SCT,SCT,0.05,0.0,WeatherDisplay:10.37,2013-06-14 08:41:00,
2013-06-13 22:51:00,68.6,63.9,30.02,East,91,9.0,20.0,85,0.00,SCT,SCT,0.05,0.0,WeatherDisplay:10.37,2013-06-14 08:51:00,
2013-06-13 23:01:00,68.6,63.9,30.01,East,98,10.0,20.0,85,0.00,SCT,SCT,0.05,0.0,WeatherDisplay:10.37,2013-06-14 09:01:00,
2013-06-13 23:11:00,68.8,64.1,30.02,East,87,12.0,22.0,85,0.00,OVC,SCT,0.05,0.0,WeatherDisplay:10.37,2013-06-14 09:11:00,
2013-06-13 23:21:00,68.8,64.4,30.02,East,91,5.0,22.0,86,0.01,RA,SCT,0.06,0.0,WeatherDisplay:10.37,2013-06-14 09:21:00,
2013-06-13 23:31:00,68.4,64.7,30.02,East,88,7.0,14.0,88,0.00,OVC,SCT,0.06,0.0,WeatherDisplay:10.37,2013-06-14 09:31:00,
2013-06-13 23:41:00,68.0,64.6,30.01,East,87,12.0,20.0,89,0.03,RA,SCT,0.09,0.0,WeatherDisplay:10.37,2013-06-14 09:41:00,
2013-06-13 23:51:00,67.6,64.3,30.01,East,87,8.0,22.0,89,0.01,RA,SCT,0.10,0.0,WeatherDisplay:10.37,2013-06-14 09:51:00,